createdAt,value
2022-08-03T00:03:58.568Z,100.00
2022-08-03T00:09:27.269Z,100.00
2022-08-03T00:15:10.478Z,100.00
2022-08-03T00:20:41.857Z,100.00
2022-08-03T00:26:11.465Z,100.00
2022-08-03T00:31:52.208Z,100.00
2022-08-03T00:37:24.056Z,100.00
2022-08-03T00:43:10.717Z,100.00
2022-08-03T00:48:40.137Z,100.00
2022-08-03T00:54:11.035Z,100.00
2022-08-03T00:59:39.947Z,100.00
2022-08-03T01:05:10.754Z,100.00
2022-08-03T01:10:54.306Z,100.00
2022-08-03T01:16:37.091Z,100.00
2022-08-03T01:22:19.301Z,100.00
2022-08-03T01:28:07.613Z,100.00
2022-08-03T01:33:40.466Z,100.00
2022-08-03T01:39:11.533Z,100.00
2022-08-03T01:44:42.870Z,100.00
2022-08-03T01:50:15.344Z,100.00
2022-08-03T01:55:53.574Z,100.00
2022-08-03T02:01:23.749Z,100.00
2022-08-03T02:07:01.911Z,100.00
2022-08-03T02:12:34.411Z,100.00
2022-08-03T02:18:06.314Z,100.00
2022-08-03T02:23:36.465Z,100.00
2022-08-03T02:29:12.494Z,100.00
2022-08-03T02:34:43.191Z,100.00
2022-08-03T02:40:14.996Z,100.00
2022-08-03T02:45:46.970Z,100.00
2022-08-03T02:51:18.191Z,100.00
2022-08-03T02:56:49.732Z,100.00
2022-08-03T03:02:20.082Z,100.00
2022-08-03T03:07:51.667Z,100.00
2022-08-03T03:13:23.449Z,100.00
2022-08-03T03:18:52.707Z,100.00
2022-08-03T03:24:22.810Z,100.00
2022-08-03T03:29:53.612Z,100.00
2022-08-03T03:35:22.707Z,100.00
2022-08-03T03:40:52.372Z,100.00
2022-08-03T03:46:22.868Z,100.00
2022-08-03T03:51:54.998Z,100.00
2022-08-03T03:57:24.163Z,100.00
2022-08-03T04:02:54.428Z,100.00
2022-08-03T04:08:40.599Z,100.00
2022-08-03T04:14:13.426Z,100.00
2022-08-03T04:19:46.387Z,100.00
2022-08-03T04:25:19.557Z,100.00
2022-08-03T04:30:50.989Z,100.00
2022-08-03T04:36:24.723Z,100.00
2022-08-03T04:42:06.936Z,100.00
2022-08-03T04:47:39.180Z,100.00
2022-08-03T04:53:09.880Z,100.00
2022-08-03T04:58:39.235Z,100.00
2022-08-03T05:04:07.594Z,100.00
2022-08-03T05:09:50.081Z,100.00
2022-08-03T05:15:22.138Z,100.00
2022-08-03T05:20:51.812Z,100.00
2022-08-03T05:26:22.763Z,100.00
2022-08-03T05:31:52.345Z,100.00
2022-08-03T05:37:21.603Z,100.00
2022-08-03T05:42:52.609Z,100.00
2022-08-03T05:48:22.477Z,100.00
2022-08-03T05:53:51.416Z,100.00
2022-08-03T05:59:37.517Z,100.00
2022-08-03T06:05:08.704Z,97.88
2022-08-03T06:10:38.531Z,96.57
2022-08-03T06:16:09.688Z,96.34
2022-08-03T06:21:38.876Z,93.49
2022-08-03T06:27:09.501Z,89.57
2022-08-03T06:32:39.896Z,83.79
2022-08-03T06:38:09.021Z,80.45
2022-08-03T06:44:03.097Z,78.99
2022-08-03T06:49:28.896Z,76.22
2022-08-03T06:54:58.416Z,73.88
2022-08-03T07:00:28.120Z,71.92
2022-08-03T07:05:58.300Z,65.56
2022-08-03T07:11:26.852Z,58.28
2022-08-03T07:16:56.226Z,54.04
2022-08-03T07:22:26.652Z,50.16
2022-08-03T07:27:56.354Z,47.45
2022-08-03T07:33:24.916Z,45.96
2022-08-03T07:38:55.762Z,46.16
2022-08-03T07:44:24.873Z,46.04
2022-08-03T07:49:54.219Z,44.96
2022-08-03T07:55:26.343Z,42.70
2022-08-03T08:00:55.295Z,40.33
2022-08-03T08:06:24.040Z,43.30
2022-08-03T08:11:55.322Z,44.27
2022-08-03T08:17:24.103Z,49.74
2022-08-03T08:22:53.036Z,54.23
2022-08-03T08:28:32.699Z,58.33
2022-08-03T08:34:05.612Z,61.70
2022-08-03T08:39:35.005Z,65.07
2022-08-03T08:45:08.502Z,74.02
2022-08-03T08:50:39.934Z,81.24
2022-08-03T08:56:10.434Z,84.44
2022-08-03T09:01:40.455Z,84.14
2022-08-03T09:07:20.090Z,77.53
2022-08-03T09:12:57.953Z,77.17
2022-08-03T09:18:32.422Z,79.50
2022-08-03T09:24:05.643Z,75.42
2022-08-03T09:29:35.212Z,73.73
2022-08-03T09:35:06.525Z,75.67
2022-08-03T09:40:38.168Z,75.45
2022-08-03T09:46:08.523Z,78.25
2022-08-03T09:52:32.153Z,83.11
2022-08-03T09:57:30.821Z,82.05
2022-08-03T10:03:05.854Z,83.75
2022-08-03T10:08:36.396Z,82.65
2022-08-03T10:14:07.259Z,82.62
2022-08-03T10:19:36.541Z,75.44
2022-08-03T10:25:10.210Z,73.45
2022-08-03T10:30:42.537Z,73.40
2022-08-03T10:36:14.711Z,71.98
2022-08-03T10:41:48.194Z,72.26
2022-08-03T10:47:17.457Z,69.34
2022-08-03T10:52:57.674Z,64.85
2022-08-03T10:58:56.832Z,63.09
2022-08-03T11:04:27.314Z,62.26
2022-08-03T11:09:57.467Z,57.21
2022-08-03T11:15:34.925Z,55.46
2022-08-03T11:21:04.061Z,54.28
2022-08-03T11:26:33.053Z,54.39
2022-08-03T11:32:03.330Z,57.67
2022-08-03T11:37:33.441Z,65.06
2022-08-03T11:43:04.072Z,63.32
2022-08-03T11:48:40.241Z,61.76
2022-08-03T11:54:09.327Z,58.64
2022-08-03T11:59:39.186Z,57.08
2022-08-03T12:05:09.647Z,58.67
2022-08-03T12:10:40.408Z,56.71
2022-08-03T12:16:10.343Z,53.65
2022-08-03T12:21:56.723Z,52.07
2022-08-03T12:27:29.769Z,50.06
2022-08-03T12:32:59.032Z,49.91
2022-08-03T12:38:29.695Z,50.57
2022-08-03T12:44:00.198Z,50.68
2022-08-03T12:49:30.494Z,52.53
2022-08-03T12:55:02.143Z,55.19
2022-08-03T13:00:31.164Z,56.28
2022-08-03T13:06:01.243Z,57.36
2022-08-03T13:11:58.041Z,59.03
2022-08-03T13:17:22.066Z,58.45
2022-08-03T13:22:51.741Z,56.24
2022-08-03T13:28:22.436Z,54.70
2022-08-03T13:33:51.804Z,56.34
2022-08-03T13:39:21.254Z,55.05
2022-08-03T13:45:05.437Z,54.76
2022-08-03T13:50:37.567Z,55.25
2022-08-03T13:56:10.154Z,58.99
2022-08-03T14:01:54.792Z,58.76
2022-08-03T14:07:24.834Z,58.14
2022-08-03T14:12:54.112Z,58.72
2022-08-03T14:18:29.274Z,58.94
2022-08-03T14:24:03.121Z,59.93
2022-08-03T14:29:32.124Z,60.76
2022-08-03T14:35:02.917Z,62.51
2022-08-03T14:40:31.772Z,63.29
2022-08-03T14:46:01.182Z,64.98
2022-08-03T14:51:31.779Z,64.82
2022-08-03T14:57:00.953Z,63.04
2022-08-03T15:02:30.500Z,61.12
2022-08-03T15:08:01.927Z,60.30
2022-08-03T15:13:31.713Z,60.64
2022-08-03T15:19:01.515Z,61.51
2022-08-03T15:24:35.367Z,66.07
2022-08-03T15:30:09.912Z,73.83
2022-08-03T15:35:39.900Z,75.31
2022-08-03T15:41:13.715Z,79.84
2022-08-03T15:46:42.719Z,80.99
2022-08-03T15:52:11.952Z,80.25
2022-08-03T15:58:59.573Z,81.32
2022-08-03T16:03:34.469Z,82.50
2022-08-03T16:09:23.145Z,82.56
2022-08-03T16:14:55.446Z,84.94
2022-08-03T16:20:29.077Z,87.47
2022-08-03T16:26:06.222Z,88.82
2022-08-03T16:31:39.616Z,88.15
2022-08-03T16:37:38.110Z,87.03
2022-08-03T16:43:18.140Z,85.99
2022-08-03T16:48:49.047Z,86.64
2022-08-03T16:54:18.780Z,85.60
2022-08-03T16:59:50.010Z,84.40
2022-08-03T17:05:21.634Z,84.20
2022-08-03T17:10:52.822Z,83.25
2022-08-03T17:16:21.911Z,84.30
2022-08-03T17:22:01.435Z,84.96
2022-08-03T17:28:48.702Z,85.42
2022-08-03T17:33:22.597Z,85.85
2022-08-03T17:38:54.941Z,87.61
2022-08-03T17:44:31.049Z,90.27
2022-08-03T17:50:24.676Z,92.16
2022-08-03T17:56:38.540Z,94.15
2022-08-03T18:02:30.299Z,96.53
2022-08-03T18:08:06.821Z,97.70
2022-08-03T18:13:42.232Z,99.25
2022-08-03T18:20:03.428Z,100.00
2022-08-03T18:25:15.147Z,100.00
2022-08-03T18:30:53.955Z,100.00
2022-08-03T18:36:30.299Z,100.00
2022-08-03T18:42:02.645Z,100.00
2022-08-03T18:47:55.425Z,100.00
2022-08-03T18:54:02.364Z,100.00
2022-08-03T18:59:30.561Z,100.00
2022-08-03T19:05:06.556Z,100.00
2022-08-03T19:10:39.121Z,100.00
2022-08-03T19:16:13.372Z,100.00
2022-08-03T19:21:49.942Z,100.00
2022-08-03T19:33:12.920Z,100.00
2022-08-03T19:38:44.059Z,100.00
2022-08-03T19:44:20.498Z,100.00
2022-08-03T19:50:06.201Z,100.00
2022-08-03T19:55:48.973Z,100.00
2022-08-03T20:01:21.563Z,100.00
2022-08-03T20:06:52.166Z,100.00
2022-08-03T20:18:14.754Z,100.00
2022-08-03T20:30:06.098Z,100.00
2022-08-03T20:35:31.825Z,100.00
2022-08-03T20:41:00.549Z,100.00
2022-08-03T20:46:46.445Z,100.00
2022-08-03T20:52:20.252Z,100.00
2022-08-03T20:57:56.622Z,100.00
2022-08-03T21:03:40.866Z,100.00
2022-08-03T21:09:20.758Z,100.00
2022-08-03T21:13:03.678Z,100.00
2022-08-03T21:13:06.785Z,100.00
2022-08-03T21:13:12.763Z,100.00
2022-08-03T21:15:00.274Z,100.00
2022-08-03T21:20:34.735Z,100.00
2022-08-03T21:26:04.243Z,100.00
2022-08-03T21:31:33.836Z,100.00
2022-08-03T21:37:04.260Z,100.00
2022-08-03T21:42:33.822Z,100.00
2022-08-03T21:48:04.941Z,100.00
2022-08-03T21:54:02.216Z,100.00
2022-08-03T21:59:26.842Z,100.00
2022-08-03T22:04:57.467Z,100.00
2022-08-03T22:10:28.816Z,100.00
2022-08-03T22:15:58.694Z,100.00
2022-08-03T22:21:36.190Z,100.00
2022-08-03T22:27:24.977Z,100.00
2022-08-03T22:32:56.201Z,100.00
2022-08-03T22:38:28.109Z,100.00
2022-08-03T22:43:59.655Z,100.00
2022-08-03T22:49:34.662Z,100.00
2022-08-03T22:55:05.127Z,100.00
2022-08-03T23:00:35.132Z,100.00
2022-08-03T23:06:04.666Z,100.00
2022-08-03T23:11:37.957Z,100.00
2022-08-03T23:17:15.368Z,100.00
2022-08-03T23:22:45.648Z,100.00
2022-08-03T23:28:17.336Z,100.00
2022-08-03T23:34:16.392Z,100.00
2022-08-03T23:39:48.158Z,100.00
2022-08-03T23:45:19.498Z,100.00
2022-08-03T23:50:58.423Z,100.00
2022-08-03T23:56:39.360Z,100.00
